createdAt,value
2023-05-14T02:10:23.447Z,99.90
2023-05-14T02:13:15.397Z,99.90
2023-05-14T02:15:44.129Z,99.90
2023-05-14T02:21:13.586Z,99.90
2023-05-14T02:23:42.176Z,99.90
2023-05-14T02:26:11.404Z,99.90
2023-05-14T02:28:43.998Z,99.90
2023-05-14T02:31:14.325Z,99.90
2023-05-14T02:34:03.198Z,99.90
2023-05-14T02:36:41.585Z,99.90
2023-05-14T02:42:25.362Z,99.90
2023-05-14T02:45:13.609Z,99.90
2023-05-14T02:47:44.279Z,99.90
2023-05-14T02:50:14.049Z,99.90
2023-05-14T02:52:44.366Z,99.90
2023-05-14T02:55:17.901Z,99.90
2023-05-14T02:57:48.446Z,99.90
2023-05-14T03:00:17.684Z,99.90
2023-05-14T03:02:53.763Z,99.90
2023-05-14T03:11:45.770Z,99.90
2023-05-14T03:17:56.402Z,99.90
2023-05-14T03:20:46.005Z,99.90
2023-05-14T03:27:18.103Z,99.90
2023-05-14T06:50:40.745Z,99.90
2023-05-14T06:53:07.585Z,99.90
2023-05-14T06:55:34.564Z,99.90
2023-05-14T06:58:03.760Z,99.90
2023-05-14T07:00:35.686Z,99.90
2023-05-14T07:03:03.060Z,99.90
2023-05-14T07:05:33.267Z,99.90
2023-05-14T07:08:03.906Z,99.90
2023-05-14T07:13:36.342Z,99.90
2023-05-14T07:16:03.354Z,99.90
2023-05-14T07:18:30.314Z,99.90
2023-05-14T07:20:57.191Z,99.90
2023-05-14T07:23:24.058Z,99.90
2023-05-14T07:25:50.854Z,99.90
2023-05-14T07:28:17.688Z,99.90
2023-05-14T07:30:44.599Z,99.90
2023-05-14T07:33:11.445Z,99.90
2023-05-14T07:35:38.313Z,99.90
2023-05-14T07:38:06.360Z,99.90
2023-05-14T07:40:33.150Z,99.90
2023-05-14T07:43:00.009Z,99.90
2023-05-14T07:45:26.682Z,99.90
2023-05-14T07:47:53.454Z,99.90
2023-05-14T07:50:20.563Z,99.90
2023-05-14T07:52:47.419Z,99.90
2023-05-14T07:55:14.268Z,99.90
2023-05-14T07:57:41.250Z,99.90
2023-05-14T08:00:08.581Z,99.90
2023-05-14T08:02:43.778Z,99.90
2023-05-14T08:05:10.646Z,99.90
2023-05-14T08:07:37.412Z,99.90
2023-05-14T08:10:04.494Z,99.90
2023-05-14T08:12:31.832Z,99.90
2023-05-14T08:14:58.692Z,99.90
2023-05-14T08:17:25.545Z,99.90
2023-05-14T08:19:52.767Z,99.90
2023-05-14T08:22:19.577Z,99.90
2023-05-14T08:24:46.459Z,99.90
2023-05-14T08:27:13.254Z,99.90
2023-05-14T08:29:40.092Z,99.90
2023-05-14T08:32:15.916Z,99.90
2023-05-14T08:34:49.401Z,99.90
2023-05-14T08:37:16.359Z,99.90
2023-05-14T08:39:44.292Z,99.90
2023-05-14T08:42:13.320Z,99.90
2023-05-14T08:44:57.004Z,99.90
2023-05-14T08:47:24.648Z,99.90
2023-05-14T08:50:14.796Z,99.90
2023-05-14T08:52:41.898Z,99.90
2023-05-14T08:55:09.701Z,99.90
2023-05-14T08:57:37.591Z,99.90
2023-05-14T09:00:12.073Z,99.90
2023-05-14T09:02:43.946Z,99.90
2023-05-14T09:05:12.487Z,99.90
2023-05-14T09:07:43.831Z,99.90
2023-05-14T09:10:21.116Z,99.90
2023-05-14T09:12:49.119Z,99.90
2023-05-14T09:15:16.353Z,99.90
2023-05-14T09:17:44.666Z,99.90
2023-05-14T09:20:16.173Z,99.90
2023-05-14T09:22:43.199Z,99.90
2023-05-14T09:25:12.499Z,99.90
2023-05-14T09:27:40.221Z,99.90
2023-05-14T09:30:19.262Z,99.90
2023-05-14T09:33:07.981Z,99.90
2023-05-14T09:38:40.553Z,99.90
2023-05-14T09:41:07.373Z,99.90
2023-05-14T09:43:34.258Z,99.90
2023-05-14T09:46:01.130Z,99.90
2023-05-14T09:48:28.554Z,99.90
2023-05-14T09:50:55.523Z,99.90
2023-05-14T09:53:22.324Z,99.90
2023-05-14T09:55:49.404Z,99.90
2023-05-14T09:58:16.245Z,99.90
2023-05-14T10:00:46.064Z,99.90
2023-05-14T10:03:18.001Z,99.90
2023-05-14T10:05:49.322Z,99.90
2023-05-14T10:08:19.358Z,99.90
2023-05-14T10:10:46.173Z,99.90
2023-05-14T10:13:32.178Z,99.90
2023-05-14T10:16:09.533Z,99.90
2023-05-14T10:18:44.104Z,99.90
2023-05-14T10:21:11.778Z,99.90
2023-05-14T10:23:39.189Z,99.90
2023-05-14T10:26:06.634Z,99.90
2023-05-14T10:28:33.902Z,99.90
2023-05-14T10:31:00.930Z,99.90
2023-05-14T10:33:28.412Z,99.90
2023-05-14T10:36:02.991Z,99.90
2023-05-14T10:38:37.292Z,99.00
2023-05-14T10:41:06.004Z,99.60
2023-05-14T10:43:37.865Z,99.90
2023-05-14T10:46:05.726Z,99.70
2023-05-14T10:48:33.785Z,99.20
2023-05-14T10:51:02.654Z,99.60
2023-05-14T10:53:43.110Z,99.80
2023-05-14T10:56:12.413Z,99.90
2023-05-14T10:58:47.105Z,99.40
2023-05-14T11:01:14.361Z,99.90
2023-05-14T11:03:46.253Z,99.90
2023-05-14T11:06:15.562Z,98.10
2023-05-14T11:08:42.961Z,98.70
2023-05-14T11:11:10.872Z,99.80
2023-05-14T11:13:38.423Z,99.90
2023-05-14T11:18:38.856Z,99.60
2023-05-14T11:21:05.761Z,99.70
2023-05-14T11:23:35.240Z,97.00
2023-05-14T11:26:02.374Z,98.20
2023-05-14T11:28:29.821Z,97.30
2023-05-14T11:30:56.658Z,98.70
2023-05-14T11:33:23.438Z,98.70
2023-05-14T11:35:50.280Z,99.20
2023-05-14T11:38:18.337Z,97.40
2023-05-14T11:40:55.526Z,96.00
2023-05-14T11:43:23.848Z,94.70
2023-05-14T11:46:01.527Z,95.20
2023-05-14T11:48:28.308Z,95.00
2023-05-14T11:50:55.083Z,95.70
2023-05-14T11:53:29.205Z,96.70
2023-05-14T11:55:57.927Z,97.20
2023-05-14T11:58:28.203Z,96.70
2023-05-14T12:00:55.951Z,96.60
2023-05-14T12:03:25.969Z,96.40
2023-05-14T12:06:00.764Z,97.30
2023-05-14T12:08:34.228Z,93.80
2023-05-14T12:11:01.594Z,95.50
2023-05-14T12:13:31.480Z,97.00
2023-05-14T12:16:00.807Z,96.90
2023-05-14T12:18:29.956Z,96.60
2023-05-14T12:21:02.017Z,96.10
2023-05-14T12:23:32.887Z,95.80
2023-05-14T12:26:07.218Z,97.10
2023-05-14T12:28:38.088Z,97.60
2023-05-14T12:31:05.652Z,97.90
2023-05-14T12:33:32.442Z,97.60
2023-05-14T12:36:09.959Z,98.00
2023-05-14T12:38:41.298Z,96.80
2023-05-14T12:41:09.209Z,97.00
2023-05-14T12:43:36.128Z,96.80
2023-05-14T12:46:05.636Z,97.00
2023-05-14T12:48:32.369Z,97.40
2023-05-14T12:50:59.085Z,97.50
2023-05-14T12:53:31.674Z,97.50
2023-05-14T12:55:58.579Z,98.00
2023-05-14T12:58:25.402Z,98.70
2023-05-14T13:00:52.500Z,97.70
2023-05-14T13:03:19.735Z,98.20
2023-05-14T13:05:46.562Z,97.30
2023-05-14T13:08:17.750Z,96.90
2023-05-14T13:10:45.021Z,97.90
2023-05-14T13:13:11.982Z,97.90
2023-05-14T13:15:38.784Z,96.00
2023-05-14T13:18:05.956Z,96.20
2023-05-14T13:20:33.836Z,96.10
2023-05-14T13:23:00.749Z,95.60
2023-05-14T13:25:28.020Z,96.20
2023-05-14T13:27:55.372Z,97.00
2023-05-14T13:30:22.225Z,95.70
2023-05-14T13:32:49.035Z,95.60
2023-05-14T13:35:15.941Z,95.70
2023-05-14T13:37:47.459Z,96.00
2023-05-14T13:40:14.593Z,96.30
2023-05-14T13:42:41.385Z,97.00
2023-05-14T13:45:08.641Z,97.50
2023-05-14T13:47:41.260Z,97.70
2023-05-14T13:50:08.460Z,97.20
2023-05-14T13:52:35.667Z,97.20
2023-05-14T13:55:02.834Z,97.80
2023-05-14T13:57:29.612Z,97.40
2023-05-14T13:59:56.410Z,96.40
2023-05-14T14:02:23.273Z,97.20
2023-05-14T14:04:50.218Z,97.20
2023-05-14T14:07:17.072Z,96.70
2023-05-14T14:09:45.151Z,96.60
2023-05-14T14:12:12.115Z,97.50
2023-05-14T14:14:39.146Z,96.80
2023-05-14T14:17:06.002Z,96.90
2023-05-14T14:19:32.793Z,97.20
2023-05-14T14:21:59.621Z,97.50
2023-05-14T14:24:26.446Z,98.10
2023-05-14T14:26:53.241Z,98.50
2023-05-14T14:29:21.000Z,97.80
2023-05-14T14:31:47.885Z,98.50
2023-05-14T14:34:15.007Z,97.30
2023-05-14T14:36:41.802Z,97.00
2023-05-14T14:39:08.590Z,97.40
2023-05-14T14:41:36.881Z,97.50
2023-05-14T14:44:03.864Z,97.60
2023-05-14T14:46:30.710Z,97.60
2023-05-14T14:48:57.560Z,97.70
2023-05-14T14:51:24.400Z,97.70
2023-05-14T14:53:51.117Z,96.70
2023-05-14T14:56:17.859Z,97.40
2023-05-14T14:58:45.417Z,97.70
2023-05-14T15:01:12.256Z,97.90
2023-05-14T15:03:39.158Z,97.30
2023-05-14T15:06:15.281Z,98.00
2023-05-14T15:08:42.104Z,98.00
2023-05-14T15:11:09.053Z,98.80
2023-05-14T15:13:36.109Z,98.80
2023-05-14T15:16:02.899Z,99.00
2023-05-14T15:18:29.755Z,99.20
2023-05-14T15:20:56.738Z,99.60
2023-05-14T15:23:23.576Z,99.40
2023-05-14T15:25:51.369Z,99.30
2023-05-14T15:28:18.119Z,99.60
2023-05-14T15:30:47.161Z,99.40
2023-05-14T15:33:17.821Z,98.70
2023-05-14T15:35:44.928Z,99.20
2023-05-14T15:38:19.204Z,99.30
2023-05-14T15:40:53.391Z,99.80
2023-05-14T15:43:20.365Z,99.90
2023-05-14T15:45:47.315Z,99.20
2023-05-14T15:48:14.153Z,99.40
2023-05-14T15:50:41.874Z,99.90
2023-05-14T15:53:09.079Z,99.50
2023-05-14T15:55:36.056Z,99.90
2023-05-14T15:58:03.202Z,99.90
2023-05-14T16:00:30.083Z,99.90
2023-05-14T16:02:57.050Z,99.90
2023-05-14T16:05:24.025Z,99.90
2023-05-14T16:07:51.195Z,99.90
2023-05-14T16:10:19.026Z,99.90
2023-05-14T16:12:49.315Z,99.90
2023-05-14T16:15:20.180Z,99.90
2023-05-14T16:17:47.093Z,99.90
2023-05-14T16:20:16.704Z,99.90
2023-05-14T16:22:43.720Z,99.90
2023-05-14T16:25:10.661Z,99.90
2023-05-14T16:27:37.460Z,99.90
2023-05-14T16:30:04.774Z,99.90
2023-05-14T16:32:31.589Z,99.90
2023-05-14T16:34:58.455Z,99.90
2023-05-14T16:37:25.351Z,99.90
2023-05-14T16:39:55.042Z,99.90
2023-05-14T16:42:21.969Z,99.90
2023-05-14T16:44:48.869Z,99.90
2023-05-14T16:47:15.693Z,99.90
2023-05-14T16:49:43.295Z,99.90
2023-05-14T16:52:10.173Z,99.90
2023-05-14T16:54:37.062Z,99.90
2023-05-14T16:57:05.007Z,99.90
2023-05-14T16:59:31.879Z,99.90
2023-05-14T17:01:58.831Z,99.90
2023-05-14T17:04:26.693Z,99.90
2023-05-14T17:06:54.920Z,99.90
2023-05-14T17:09:22.145Z,99.90
2023-05-14T17:11:49.285Z,99.90
2023-05-14T17:14:16.210Z,99.90
2023-05-14T17:16:43.078Z,99.90
2023-05-14T17:19:10.032Z,99.90
2023-05-14T17:21:37.033Z,99.90
2023-05-14T17:24:04.076Z,99.90
2023-05-14T17:26:31.070Z,99.90
2023-05-14T17:28:57.991Z,99.90
2023-05-14T17:31:24.984Z,99.90
2023-05-14T17:33:51.959Z,99.90
2023-05-14T17:36:19.043Z,99.90
2023-05-14T17:38:48.704Z,99.90
2023-05-14T17:41:15.640Z,99.90
2023-05-14T17:43:42.466Z,99.90
2023-05-14T17:46:09.564Z,99.90
2023-05-14T17:48:49.339Z,99.90
2023-05-14T18:19:45.631Z,99.90
2023-05-14T18:22:15.697Z,99.90
2023-05-14T18:24:44.262Z,99.90
2023-05-14T18:27:11.216Z,99.90
2023-05-14T18:29:38.435Z,99.90
2023-05-14T18:32:06.074Z,99.90
2023-05-14T18:34:33.042Z,99.90
2023-05-14T18:37:00.060Z,99.90
2023-05-14T18:39:27.017Z,99.90
2023-05-14T18:41:55.266Z,99.90
2023-05-14T18:44:22.754Z,99.90
2023-05-14T18:46:49.918Z,99.90
2023-05-14T18:49:16.867Z,99.90
2023-05-14T18:51:43.837Z,99.90
2023-05-14T18:54:11.258Z,99.90
2023-05-14T18:56:38.759Z,99.90
2023-05-14T18:59:05.934Z,99.90
2023-05-14T19:01:32.816Z,99.90
2023-05-14T19:04:00.189Z,99.90
2023-05-14T19:06:31.345Z,99.90
2023-05-14T19:08:58.771Z,99.90
2023-05-14T19:11:26.143Z,99.90
2023-05-14T19:13:53.065Z,99.90
2023-05-14T19:16:21.994Z,99.90
2023-05-14T19:18:49.117Z,99.90
2023-05-14T19:21:20.591Z,99.90
2023-05-14T19:23:50.630Z,99.90
2023-05-14T19:26:19.184Z,99.90
2023-05-14T19:28:46.143Z,99.90
2023-05-14T19:31:16.605Z,99.90
2023-05-14T19:33:43.635Z,99.90
2023-05-14T19:36:13.289Z,99.90
2023-05-14T19:38:40.548Z,99.90
2023-05-14T19:41:07.462Z,99.90
2023-05-14T19:43:34.441Z,99.90
2023-05-14T19:46:01.854Z,99.90
2023-05-14T19:48:28.841Z,99.90
2023-05-14T19:50:56.432Z,99.90
2023-05-14T19:53:29.801Z,99.90
2023-05-14T19:55:57.739Z,99.90
2023-05-14T19:58:24.732Z,99.90
2023-05-14T20:00:53.517Z,99.90
2023-05-14T20:03:23.576Z,99.90
2023-05-14T20:05:51.606Z,99.90
2023-05-14T20:08:19.163Z,99.90
2023-05-14T20:10:46.345Z,99.90
2023-05-14T20:13:13.250Z,99.90
2023-05-14T20:15:40.558Z,99.90
2023-05-14T20:18:07.563Z,99.90
2023-05-14T20:20:34.819Z,99.90
2023-05-14T20:23:01.768Z,99.90
2023-05-14T20:25:28.947Z,99.90
2023-05-14T20:27:55.866Z,99.90
2023-05-14T20:30:22.946Z,99.90
2023-05-14T20:32:50.040Z,99.90
2023-05-14T20:35:17.042Z,99.90
2023-05-14T20:37:44.008Z,99.90
2023-05-14T20:40:14.237Z,99.90
2023-05-14T20:42:41.246Z,99.90
2023-05-14T20:45:09.141Z,99.90
2023-05-14T20:47:36.367Z,99.90
2023-05-14T20:50:03.559Z,99.90
2023-05-14T20:52:30.491Z,99.90
2023-05-14T20:54:58.783Z,99.90
2023-05-14T20:57:27.983Z,99.90
2023-05-14T20:59:54.891Z,99.90
2023-05-14T21:02:22.054Z,99.90
2023-05-14T21:04:49.051Z,99.90
2023-05-14T21:07:16.089Z,99.90
2023-05-14T21:09:46.325Z,99.90
2023-05-14T21:12:13.313Z,99.90
2023-05-14T21:14:40.194Z,99.90
2023-05-14T21:17:07.226Z,99.90
2023-05-14T21:19:34.048Z,99.90
2023-05-14T21:22:00.869Z,99.90
2023-05-14T21:24:27.810Z,99.90
2023-05-14T21:26:54.830Z,99.90
2023-05-14T21:29:21.734Z,99.90
2023-05-14T21:31:48.727Z,99.90
2023-05-14T21:34:15.705Z,99.90
2023-05-14T21:36:42.700Z,99.90
2023-05-14T21:39:09.715Z,99.90
2023-05-14T21:41:39.654Z,99.90
2023-05-14T21:44:06.817Z,99.90
2023-05-14T21:46:33.845Z,99.90
2023-05-14T21:49:00.804Z,99.90
2023-05-14T21:51:27.742Z,99.90
2023-05-14T21:53:54.757Z,99.90
2023-05-14T21:56:22.546Z,99.90
2023-05-14T21:58:49.495Z,99.90
2023-05-14T22:01:16.428Z,99.90
2023-05-14T22:03:43.484Z,99.90
2023-05-14T22:06:13.353Z,99.90
2023-05-14T22:08:40.255Z,99.90
2023-05-14T22:11:07.117Z,99.90
2023-05-14T22:13:35.482Z,99.90
2023-05-14T22:16:12.268Z,99.90
2023-05-14T22:18:40.560Z,99.90
2023-05-14T22:21:07.568Z,99.90
2023-05-14T22:23:34.503Z,99.90
2023-05-14T22:26:01.425Z,99.90
2023-05-14T22:28:28.394Z,99.90
2023-05-14T22:30:56.638Z,99.90
2023-05-14T22:33:23.767Z,99.90
2023-05-14T22:35:50.752Z,99.90
2023-05-14T22:38:17.760Z,99.90
2023-05-14T22:40:44.612Z,99.90
2023-05-14T22:43:11.468Z,99.90
2023-05-14T22:45:38.428Z,99.90
2023-05-14T22:48:05.548Z,99.90
2023-05-14T22:50:32.762Z,99.90
2023-05-14T22:52:59.645Z,99.90
2023-05-14T22:55:26.920Z,99.90
2023-05-14T22:57:54.113Z,99.90
2023-05-14T23:00:21.106Z,99.90
2023-05-14T23:02:47.969Z,99.90
2023-05-14T23:05:14.966Z,99.90
2023-05-14T23:07:41.829Z,99.90
2023-05-14T23:10:09.200Z,99.90
2023-05-14T23:12:36.398Z,99.90
2023-05-14T23:15:03.636Z,99.90
2023-05-14T23:17:31.009Z,99.90
2023-05-14T23:19:58.135Z,99.90
2023-05-14T23:22:25.179Z,99.90
2023-05-14T23:24:52.165Z,99.90
2023-05-14T23:27:19.309Z,99.90
2023-05-14T23:29:46.174Z,99.90
2023-05-14T23:32:13.117Z,99.90
2023-05-14T23:34:40.063Z,99.90
2023-05-14T23:37:07.741Z,99.90
2023-05-14T23:39:34.773Z,99.90
2023-05-14T23:42:01.978Z,99.90
2023-05-14T23:44:28.996Z,99.90
2023-05-14T23:46:56.210Z,99.90
2023-05-14T23:49:23.212Z,99.90
2023-05-14T23:51:50.142Z,99.90
2023-05-14T23:54:17.466Z,99.90
2023-05-14T23:56:44.658Z,99.90
2023-05-14T23:59:12.146Z,99.90
